sensor_id;sensor_type;location;lat;lon;timestamp;temperature;humidity
25652;DHT22;13508;50.734;4.232;2024-01-11T00:01:45;-1.70;99.90
25652;DHT22;13508;50.734;4.232;2024-01-11T00:04:49;-1.60;99.90
25652;DHT22;13508;50.734;4.232;2024-01-11T00:07:53;-1.60;99.90
25652;DHT22;13508;50.734;4.232;2024-01-11T00:10:56;-1.40;99.90
25652;DHT22;13508;50.734;4.232;2024-01-11T00:14:02;-1.60;99.90
25652;DHT22;13508;50.734;4.232;2024-01-11T00:17:06;-1.70;99.90
25652;DHT22;13508;50.734;4.232;2024-01-11T00:20:09;-1.90;99.90
25652;DHT22;13508;50.734;4.232;2024-01-11T00:23:15;-1.70;99.90
25652;DHT22;13508;50.734;4.232;2024-01-11T00:26:19;-1.60;99.90
25652;DHT22;13508;50.734;4.232;2024-01-11T00:29:22;-1.60;99.90
25652;DHT22;13508;50.734;4.232;2024-01-11T00:32:28;-1.50;99.90
25652;DHT22;13508;50.734;4.232;2024-01-11T00:35:33;-1.70;99.90
25652;DHT22;13508;50.734;4.232;2024-01-11T00:38:36;-1.70;99.90
25652;DHT22;13508;50.734;4.232;2024-01-11T00:41:40;-1.70;99.90
25652;DHT22;13508;50.734;4.232;2024-01-11T00:44:43;-1.80;99.90
25652;DHT22;13508;50.734;4.232;2024-01-11T00:47:47;-1.80;99.90
25652;DHT22;13508;50.734;4.232;2024-01-11T00:50:51;-1.70;99.90
25652;DHT22;13508;50.734;4.232;2024-01-11T00:53:57;-1.90;99.90
25652;DHT22;13508;50.734;4.232;2024-01-11T00:57:01;-2.00;99.90
25652;DHT22;13508;50.734;4.232;2024-01-11T01:00:06;-1.90;99.90
25652;DHT22;13508;50.734;4.232;2024-01-11T01:03:10;-1.80;99.90
25652;DHT22;13508;50.734;4.232;2024-01-11T01:06:14;-1.90;99.90
25652;DHT22;13508;50.734;4.232;2024-01-11T01:09:19;-2.00;99.90
25652;DHT22;13508;50.734;4.232;2024-01-11T01:12:23;-2.00;99.90
25652;DHT22;13508;50.734;4.232;2024-01-11T01:15:30;-2.10;99.90
25652;DHT22;13508;50.734;4.232;2024-01-11T01:18:34;-1.90;99.90
25652;DHT22;13508;50.734;4.232;2024-01-11T01:21:37;-1.90;99.90
25652;DHT22;13508;50.734;4.232;2024-01-11T01:24:43;-1.70;99.90
25652;DHT22;13508;50.734;4.232;2024-01-11T01:27:46;-1.70;99.90
25652;DHT22;13508;50.734;4.232;2024-01-11T01:30:51;-1.80;99.90
25652;DHT22;13508;50.734;4.232;2024-01-11T01:33:55;-1.80;99.90
25652;DHT22;13508;50.734;4.232;2024-01-11T01:36:59;-1.90;99.90
25652;DHT22;13508;50.734;4.232;2024-01-11T01:40:02;-1.80;99.90
25652;DHT22;13508;50.734;4.232;2024-01-11T01:43:07;-1.90;99.90
25652;DHT22;13508;50.734;4.232;2024-01-11T01:46:19;-1.80;99.90
25652;DHT22;13508;50.734;4.232;2024-01-11T01:49:23;-2.00;99.90
25652;DHT22;13508;50.734;4.232;2024-01-11T01:52:27;-1.90;99.90
25652;DHT22;13508;50.734;4.232;2024-01-11T01:55:31;-1.80;99.90
25652;DHT22;13508;50.734;4.232;2024-01-11T01:58:35;-1.90;99.90
25652;DHT22;13508;50.734;4.232;2024-01-11T02:01:38;-2.00;99.90
25652;DHT22;13508;50.734;4.232;2024-01-11T02:04:42;-2.10;99.90
25652;DHT22;13508;50.734;4.232;2024-01-11T02:07:46;-2.20;99.90
25652;DHT22;13508;50.734;4.232;2024-01-11T02:10:49;-2.20;99.90
25652;DHT22;13508;50.734;4.232;2024-01-11T02:13:53;-2.20;99.90
25652;DHT22;13508;50.734;4.232;2024-01-11T02:16:57;-2.20;99.90
25652;DHT22;13508;50.734;4.232;2024-01-11T02:20:01;-2.20;99.90
25652;DHT22;13508;50.734;4.232;2024-01-11T02:23:17;-2.10;99.90
25652;DHT22;13508;50.734;4.232;2024-01-11T02:26:22;-2.00;99.90
25652;DHT22;13508;50.734;4.232;2024-01-11T02:29:28;-2.10;99.90
25652;DHT22;13508;50.734;4.232;2024-01-11T02:32:32;-2.40;99.90
25652;DHT22;13508;50.734;4.232;2024-01-11T02:35:35;-2.30;99.90
25652;DHT22;13508;50.734;4.232;2024-01-11T02:38:42;-2.30;99.90
25652;DHT22;13508;50.734;4.232;2024-01-11T02:41:47;-2.30;99.90
25652;DHT22;13508;50.734;4.232;2024-01-11T02:44:50;-2.30;99.90
25652;DHT22;13508;50.734;4.232;2024-01-11T02:47:53;-2.40;99.90
25652;DHT22;13508;50.734;4.232;2024-01-11T02:50:57;-2.40;99.90
25652;DHT22;13508;50.734;4.232;2024-01-11T02:54:00;-2.20;99.90
25652;DHT22;13508;50.734;4.232;2024-01-11T02:57:04;-2.30;99.90
25652;DHT22;13508;50.734;4.232;2024-01-11T03:00:08;-2.30;99.90
25652;DHT22;13508;50.734;4.232;2024-01-11T03:03:11;-2.40;99.90
25652;DHT22;13508;50.734;4.232;2024-01-11T03:06:15;-2.30;99.90
25652;DHT22;13508;50.734;4.232;2024-01-11T03:09:23;-2.40;99.90
25652;DHT22;13508;50.734;4.232;2024-01-11T03:12:26;-2.10;99.90
25652;DHT22;13508;50.734;4.232;2024-01-11T03:15:30;-2.40;99.90
25652;DHT22;13508;50.734;4.232;2024-01-11T03:18:33;-2.60;99.90
25652;DHT22;13508;50.734;4.232;2024-01-11T03:21:43;-2.50;99.90
25652;DHT22;13508;50.734;4.232;2024-01-11T03:24:46;-2.50;99.90
25652;DHT22;13508;50.734;4.232;2024-01-11T03:27:52;-2.30;99.90
25652;DHT22;13508;50.734;4.232;2024-01-11T03:30:55;-2.40;99.90
25652;DHT22;13508;50.734;4.232;2024-01-11T03:33:59;-2.50;99.90
25652;DHT22;13508;50.734;4.232;2024-01-11T03:37:03;-2.40;99.90
25652;DHT22;13508;50.734;4.232;2024-01-11T03:40:07;-2.60;99.90
25652;DHT22;13508;50.734;4.232;2024-01-11T03:43:10;-2.70;99.90
25652;DHT22;13508;50.734;4.232;2024-01-11T03:46:13;-2.80;99.90
25652;DHT22;13508;50.734;4.232;2024-01-11T03:49:17;-2.80;99.90
25652;DHT22;13508;50.734;4.232;2024-01-11T03:52:20;-2.80;99.90
25652;DHT22;13508;50.734;4.232;2024-01-11T03:55:24;-2.80;99.90
25652;DHT22;13508;50.734;4.232;2024-01-11T03:58:27;-2.80;99.90
25652;DHT22;13508;50.734;4.232;2024-01-11T04:01:33;-2.90;99.90
25652;DHT22;13508;50.734;4.232;2024-01-11T04:04:36;-3.00;99.90
25652;DHT22;13508;50.734;4.232;2024-01-11T04:07:40;-3.10;99.90
25652;DHT22;13508;50.734;4.232;2024-01-11T04:10:43;-3.10;99.90
25652;DHT22;13508;50.734;4.232;2024-01-11T04:13:49;-3.00;99.90
25652;DHT22;13508;50.734;4.232;2024-01-11T04:16:53;-2.90;99.90
25652;DHT22;13508;50.734;4.232;2024-01-11T04:19:56;-2.80;99.90
25652;DHT22;13508;50.734;4.232;2024-01-11T04:23:01;-3.00;99.90
25652;DHT22;13508;50.734;4.232;2024-01-11T04:26:07;-3.10;99.90
25652;DHT22;13508;50.734;4.232;2024-01-11T04:29:11;-3.40;99.90
25652;DHT22;13508;50.734;4.232;2024-01-11T04:32:14;-3.60;99.90
25652;DHT22;13508;50.734;4.232;2024-01-11T04:35:17;-3.60;99.90
25652;DHT22;13508;50.734;4.232;2024-01-11T04:38:20;-3.60;99.90
25652;DHT22;13508;50.734;4.232;2024-01-11T04:41:24;-3.60;99.90
25652;DHT22;13508;50.734;4.232;2024-01-11T04:44:27;-3.70;99.90
25652;DHT22;13508;50.734;4.232;2024-01-11T04:47:35;-3.60;99.90
25652;DHT22;13508;50.734;4.232;2024-01-11T04:50:38;-3.70;99.90
25652;DHT22;13508;50.734;4.232;2024-01-11T04:53:43;-3.60;99.90
25652;DHT22;13508;50.734;4.232;2024-01-11T04:56:46;-3.60;99.90
25652;DHT22;13508;50.734;4.232;2024-01-11T04:59:50;-3.60;99.90
25652;DHT22;13508;50.734;4.232;2024-01-11T05:02:54;-3.50;99.90
25652;DHT22;13508;50.734;4.232;2024-01-11T05:05:59;-3.50;99.90
25652;DHT22;13508;50.734;4.232;2024-01-11T05:09:05;-3.30;99.90
25652;DHT22;13508;50.734;4.232;2024-01-11T05:12:10;-3.20;99.90
25652;DHT22;13508;50.734;4.232;2024-01-11T05:15:13;-3.10;99.90
25652;DHT22;13508;50.734;4.232;2024-01-11T05:18:19;-2.80;99.90
25652;DHT22;13508;50.734;4.232;2024-01-11T05:21:22;-3.10;99.90
25652;DHT22;13508;50.734;4.232;2024-01-11T05:24:26;-3.10;99.90
25652;DHT22;13508;50.734;4.232;2024-01-11T05:27:29;-3.20;99.90
25652;DHT22;13508;50.734;4.232;2024-01-11T05:30:33;-3.30;99.90
25652;DHT22;13508;50.734;4.232;2024-01-11T05:33:37;-3.40;99.90
25652;DHT22;13508;50.734;4.232;2024-01-11T05:36:40;-3.40;99.90
25652;DHT22;13508;50.734;4.232;2024-01-11T05:39:44;-3.30;99.90
25652;DHT22;13508;50.734;4.232;2024-01-11T05:42:47;-3.10;99.90
25652;DHT22;13508;50.734;4.232;2024-01-11T05:45:51;-3.20;99.90
25652;DHT22;13508;50.734;4.232;2024-01-11T05:48:56;-3.20;99.90
25652;DHT22;13508;50.734;4.232;2024-01-11T05:52:00;-3.30;99.90
25652;DHT22;13508;50.734;4.232;2024-01-11T05:55:04;-3.30;99.90
25652;DHT22;13508;50.734;4.232;2024-01-11T05:58:08;-3.30;99.90
25652;DHT22;13508;50.734;4.232;2024-01-11T06:01:12;-3.20;99.90
25652;DHT22;13508;50.734;4.232;2024-01-11T06:04:15;-3.20;99.90
25652;DHT22;13508;50.734;4.232;2024-01-11T06:07:21;-3.30;99.90
25652;DHT22;13508;50.734;4.232;2024-01-11T06:10:25;-3.30;99.90
25652;DHT22;13508;50.734;4.232;2024-01-11T06:13:28;-3.20;99.90
25652;DHT22;13508;50.734;4.232;2024-01-11T06:16:32;-3.10;99.90
25652;DHT22;13508;50.734;4.232;2024-01-11T06:19:35;-3.30;99.90
25652;DHT22;13508;50.734;4.232;2024-01-11T06:22:38;-3.30;99.90
25652;DHT22;13508;50.734;4.232;2024-01-11T06:25:42;-3.30;99.90
25652;DHT22;13508;50.734;4.232;2024-01-11T06:28:45;-3.10;99.90
25652;DHT22;13508;50.734;4.232;2024-01-11T06:31:49;-3.30;99.90
25652;DHT22;13508;50.734;4.232;2024-01-11T06:34:52;-3.20;99.90
25652;DHT22;13508;50.734;4.232;2024-01-11T06:37:55;-3.20;99.90
25652;DHT22;13508;50.734;4.232;2024-01-11T06:40:59;-3.30;99.90
25652;DHT22;13508;50.734;4.232;2024-01-11T06:44:03;-3.40;99.90
25652;DHT22;13508;50.734;4.232;2024-01-11T06:47:06;-3.60;99.90
25652;DHT22;13508;50.734;4.232;2024-01-11T06:50:12;-3.70;99.90
25652;DHT22;13508;50.734;4.232;2024-01-11T06:53:16;-3.70;99.90
25652;DHT22;13508;50.734;4.232;2024-01-11T06:56:22;-3.50;99.90
25652;DHT22;13508;50.734;4.232;2024-01-11T06:59:25;-3.70;99.90
25652;DHT22;13508;50.734;4.232;2024-01-11T07:02:29;-3.80;99.90
25652;DHT22;13508;50.734;4.232;2024-01-11T07:05:32;-3.70;99.90
25652;DHT22;13508;50.734;4.232;2024-01-11T07:08:36;-3.60;99.90
25652;DHT22;13508;50.734;4.232;2024-01-11T07:11:42;-3.70;99.90
25652;DHT22;13508;50.734;4.232;2024-01-11T07:14:47;-3.50;99.90
25652;DHT22;13508;50.734;4.232;2024-01-11T07:17:50;-3.40;99.90
25652;DHT22;13508;50.734;4.232;2024-01-11T07:20:56;-3.40;99.90
25652;DHT22;13508;50.734;4.232;2024-01-11T07:24:00;-3.50;99.90
25652;DHT22;13508;50.734;4.232;2024-01-11T07:27:04;-3.30;99.90
25652;DHT22;13508;50.734;4.232;2024-01-11T07:30:12;-3.40;99.90
25652;DHT22;13508;50.734;4.232;2024-01-11T07:33:19;-3.40;99.90
25652;DHT22;13508;50.734;4.232;2024-01-11T07:36:22;-3.10;99.90
25652;DHT22;13508;50.734;4.232;2024-01-11T07:39:25;-3.00;99.90
25652;DHT22;13508;50.734;4.232;2024-01-11T07:42:31;-3.10;99.90
25652;DHT22;13508;50.734;4.232;2024-01-11T07:45:37;-3.40;99.90
25652;DHT22;13508;50.734;4.232;2024-01-11T07:48:40;-3.40;99.90
25652;DHT22;13508;50.734;4.232;2024-01-11T07:51:43;-3.20;99.90
25652;DHT22;13508;50.734;4.232;2024-01-11T07:54:47;-3.10;99.90
25652;DHT22;13508;50.734;4.232;2024-01-11T07:57:50;-3.30;99.90
25652;DHT22;13508;50.734;4.232;2024-01-11T08:00:56;-3.20;99.90
25652;DHT22;13508;50.734;4.232;2024-01-11T08:03:59;-3.00;99.90
25652;DHT22;13508;50.734;4.232;2024-01-11T08:07:05;-3.00;99.90
25652;DHT22;13508;50.734;4.232;2024-01-11T08:10:10;-3.20;99.90
25652;DHT22;13508;50.734;4.232;2024-01-11T08:13:14;-3.30;99.90
25652;DHT22;13508;50.734;4.232;2024-01-11T08:16:18;-3.30;99.90
25652;DHT22;13508;50.734;4.232;2024-01-11T08:19:21;-3.30;99.90
25652;DHT22;13508;50.734;4.232;2024-01-11T08:22:25;-3.50;99.90
25652;DHT22;13508;50.734;4.232;2024-01-11T08:25:28;-3.50;99.90
25652;DHT22;13508;50.734;4.232;2024-01-11T08:28:31;-3.40;99.90
25652;DHT22;13508;50.734;4.232;2024-01-11T08:31:35;-3.20;99.90
25652;DHT22;13508;50.734;4.232;2024-01-11T08:34:38;-3.30;99.90
25652;DHT22;13508;50.734;4.232;2024-01-11T08:37:41;-3.20;99.90
25652;DHT22;13508;50.734;4.232;2024-01-11T08:40:47;-3.20;99.90
25652;DHT22;13508;50.734;4.232;2024-01-11T08:43:53;-3.10;99.90
25652;DHT22;13508;50.734;4.232;2024-01-11T08:46:58;-3.10;99.90
25652;DHT22;13508;50.734;4.232;2024-01-11T08:50:02;-2.80;99.90
25652;DHT22;13508;50.734;4.232;2024-01-11T08:53:09;-2.70;99.90
25652;DHT22;13508;50.734;4.232;2024-01-11T08:56:14;-2.50;99.90
25652;DHT22;13508;50.734;4.232;2024-01-11T08:59:20;-2.60;99.90
25652;DHT22;13508;50.734;4.232;2024-01-11T09:02:27;-2.40;99.90
25652;DHT22;13508;50.734;4.232;2024-01-11T09:05:31;-2.50;99.90
25652;DHT22;13508;50.734;4.232;2024-01-11T09:08:34;-2.30;99.90
25652;DHT22;13508;50.734;4.232;2024-01-11T09:11:38;-2.50;99.90
25652;DHT22;13508;50.734;4.232;2024-01-11T09:14:42;-2.40;99.90
25652;DHT22;13508;50.734;4.232;2024-01-11T09:17:45;-2.60;99.90
25652;DHT22;13508;50.734;4.232;2024-01-11T09:20:49;-2.60;99.90
25652;DHT22;13508;50.734;4.232;2024-01-11T09:23:55;-2.40;99.90
25652;DHT22;13508;50.734;4.232;2024-01-11T09:26:59;-2.30;99.90
25652;DHT22;13508;50.734;4.232;2024-01-11T09:30:03;-2.40;99.90
25652;DHT22;13508;50.734;4.232;2024-01-11T09:33:07;-2.40;99.90
25652;DHT22;13508;50.734;4.232;2024-01-11T09:36:11;-2.20;99.90
25652;DHT22;13508;50.734;4.232;2024-01-11T09:39:14;-1.90;99.90
25652;DHT22;13508;50.734;4.232;2024-01-11T09:42:18;-2.10;99.90
25652;DHT22;13508;50.734;4.232;2024-01-11T09:45:21;-2.20;99.90
25652;DHT22;13508;50.734;4.232;2024-01-11T09:48:25;-2.10;99.90
25652;DHT22;13508;50.734;4.232;2024-01-11T09:51:29;-2.10;99.90
25652;DHT22;13508;50.734;4.232;2024-01-11T09:54:33;-1.80;99.90
25652;DHT22;13508;50.734;4.232;2024-01-11T09:57:37;-1.60;99.90
25652;DHT22;13508;50.734;4.232;2024-01-11T10:00:43;-1.60;99.90
25652;DHT22;13508;50.734;4.232;2024-01-11T10:03:47;-1.50;99.90
25652;DHT22;13508;50.734;4.232;2024-01-11T10:06:54;-1.80;99.90
25652;DHT22;13508;50.734;4.232;2024-01-11T10:09:58;-1.90;99.90
25652;DHT22;13508;50.734;4.232;2024-01-11T10:13:01;-1.90;99.90
25652;DHT22;13508;50.734;4.232;2024-01-11T10:16:09;-1.80;99.90
25652;DHT22;13508;50.734;4.232;2024-01-11T10:19:13;-1.70;99.90
25652;DHT22;13508;50.734;4.232;2024-01-11T10:22:21;-1.50;99.90
25652;DHT22;13508;50.734;4.232;2024-01-11T10:25:24;-1.40;99.90
25652;DHT22;13508;50.734;4.232;2024-01-11T10:28:28;-1.20;99.90
25652;DHT22;13508;50.734;4.232;2024-01-11T10:31:31;-1.10;99.90
25652;DHT22;13508;50.734;4.232;2024-01-11T10:34:37;-1.30;99.90
25652;DHT22;13508;50.734;4.232;2024-01-11T10:37:45;-1.10;99.90
25652;DHT22;13508;50.734;4.232;2024-01-11T10:40:51;-1.10;99.90
25652;DHT22;13508;50.734;4.232;2024-01-11T10:43:57;-1.10;99.90
25652;DHT22;13508;50.734;4.232;2024-01-11T10:47:02;-1.20;99.90
25652;DHT22;13508;50.734;4.232;2024-01-11T10:50:07;-1.10;99.90
25652;DHT22;13508;50.734;4.232;2024-01-11T10:56:43;-0.90;99.90
25652;DHT22;13508;50.734;4.232;2024-01-11T10:59:47;-0.80;99.90
25652;DHT22;13508;50.734;4.232;2024-01-11T11:02:52;-0.90;99.90
25652;DHT22;13508;50.734;4.232;2024-01-11T11:05:58;-0.90;99.90
25652;DHT22;13508;50.734;4.232;2024-01-11T11:09:04;-0.70;99.90
25652;DHT22;13508;50.734;4.232;2024-01-11T11:12:09;-0.60;99.90
25652;DHT22;13508;50.734;4.232;2024-01-11T11:15:14;-0.60;99.90
25652;DHT22;13508;50.734;4.232;2024-01-11T11:18:19;-0.50;99.90
25652;DHT22;13508;50.734;4.232;2024-01-11T11:21:24;-0.20;99.90
25652;DHT22;13508;50.734;4.232;2024-01-11T11:24:27;-0.20;99.90
25652;DHT22;13508;50.734;4.232;2024-01-11T11:27:33;0.00;99.90
25652;DHT22;13508;50.734;4.232;2024-01-11T11:30:38;0.10;99.90
25652;DHT22;13508;50.734;4.232;2024-01-11T11:33:41;0.20;99.90
25652;DHT22;13508;50.734;4.232;2024-01-11T11:36:48;0.30;99.90
25652;DHT22;13508;50.734;4.232;2024-01-11T11:39:58;0.40;99.90
25652;DHT22;13508;50.734;4.232;2024-01-11T11:43:01;0.40;99.90
25652;DHT22;13508;50.734;4.232;2024-01-11T11:46:06;0.50;99.90
25652;DHT22;13508;50.734;4.232;2024-01-11T11:49:11;1.60;99.90
25652;DHT22;13508;50.734;4.232;2024-01-11T11:52:16;3.60;99.90
25652;DHT22;13508;50.734;4.232;2024-01-11T11:55:25;5.40;99.90
25652;DHT22;13508;50.734;4.232;2024-01-11T11:58:32;6.70;99.90
25652;DHT22;13508;50.734;4.232;2024-01-11T12:01:37;7.70;99.90
25652;DHT22;13508;50.734;4.232;2024-01-11T12:04:47;8.20;97.90
25652;DHT22;13508;50.734;4.232;2024-01-11T12:07:51;8.60;96.20
25652;DHT22;13508;50.734;4.232;2024-01-11T12:10:55;8.10;96.60
25652;DHT22;13508;50.734;4.232;2024-01-11T12:13:59;7.50;97.00
25652;DHT22;13508;50.734;4.232;2024-01-11T12:17:02;8.00;96.30
25652;DHT22;13508;50.734;4.232;2024-01-11T12:20:06;8.60;95.30
25652;DHT22;13508;50.734;4.232;2024-01-11T12:23:10;8.50;95.90
25652;DHT22;13508;50.734;4.232;2024-01-11T12:26:14;8.80;93.70
25652;DHT22;13508;50.734;4.232;2024-01-11T12:29:18;9.00;93.50
25652;DHT22;13508;50.734;4.232;2024-01-11T12:32:22;9.40;92.70
25652;DHT22;13508;50.734;4.232;2024-01-11T12:35:26;9.20;92.20
25652;DHT22;13508;50.734;4.232;2024-01-11T12:38:31;9.20;92.10
25652;DHT22;13508;50.734;4.232;2024-01-11T12:41:35;9.20;92.10
25652;DHT22;13508;50.734;4.232;2024-01-11T12:44:38;8.70;92.70
25652;DHT22;13508;50.734;4.232;2024-01-11T12:47:43;9.00;92.30
25652;DHT22;13508;50.734;4.232;2024-01-11T12:50:47;8.90;92.20
25652;DHT22;13508;50.734;4.232;2024-01-11T12:53:53;9.10;92.10
25652;DHT22;13508;50.734;4.232;2024-01-11T12:57:00;8.50;92.10
25652;DHT22;13508;50.734;4.232;2024-01-11T13:00:13;8.80;92.00
25652;DHT22;13508;50.734;4.232;2024-01-11T13:03:20;8.50;92.10
25652;DHT22;13508;50.734;4.232;2024-01-11T13:06:26;7.80;92.60
25652;DHT22;13508;50.734;4.232;2024-01-11T13:09:30;7.90;93.00
25652;DHT22;13508;50.734;4.232;2024-01-11T13:12:53;8.00;92.40
25652;DHT22;13508;50.734;4.232;2024-01-11T13:15:56;7.90;92.40
25652;DHT22;13508;50.734;4.232;2024-01-11T13:19:00;7.40;93.10
25652;DHT22;13508;50.734;4.232;2024-01-11T13:22:03;6.90;93.70
25652;DHT22;13508;50.734;4.232;2024-01-11T13:25:07;6.70;94.20
25652;DHT22;13508;50.734;4.232;2024-01-11T13:28:13;6.60;94.50
25652;DHT22;13508;50.734;4.232;2024-01-11T13:31:17;6.90;94.60
25652;DHT22;13508;50.734;4.232;2024-01-11T13:34:20;6.70;94.50
25652;DHT22;13508;50.734;4.232;2024-01-11T13:37:25;6.80;94.30
25652;DHT22;13508;50.734;4.232;2024-01-11T13:40:29;6.20;95.20
25652;DHT22;13508;50.734;4.232;2024-01-11T13:43:32;5.80;96.10
25652;DHT22;13508;50.734;4.232;2024-01-11T13:46:38;6.00;95.80
25652;DHT22;13508;50.734;4.232;2024-01-11T13:49:42;5.60;96.20
25652;DHT22;13508;50.734;4.232;2024-01-11T13:52:45;5.80;96.30
25652;DHT22;13508;50.734;4.232;2024-01-11T13:55:51;6.10;96.00
25652;DHT22;13508;50.734;4.232;2024-01-11T13:58:55;6.30;95.70
25652;DHT22;13508;50.734;4.232;2024-01-11T14:02:01;6.40;95.70
25652;DHT22;13508;50.734;4.232;2024-01-11T14:05:09;6.10;96.20
25652;DHT22;13508;50.734;4.232;2024-01-11T14:08:14;5.90;96.60
25652;DHT22;13508;50.734;4.232;2024-01-11T14:11:18;6.10;97.00
25652;DHT22;13508;50.734;4.232;2024-01-11T14:14:22;6.30;97.20
25652;DHT22;13508;50.734;4.232;2024-01-11T14:17:25;6.10;97.80
25652;DHT22;13508;50.734;4.232;2024-01-11T14:20:29;6.40;97.60
25652;DHT22;13508;50.734;4.232;2024-01-11T14:23:33;6.10;97.80
25652;DHT22;13508;50.734;4.232;2024-01-11T14:26:37;5.60;97.90
25652;DHT22;13508;50.734;4.232;2024-01-11T14:29:41;5.10;98.60
25652;DHT22;13508;50.734;4.232;2024-01-11T14:32:44;5.10;98.60
25652;DHT22;13508;50.734;4.232;2024-01-11T14:35:47;4.70;99.00
25652;DHT22;13508;50.734;4.232;2024-01-11T14:38:51;4.50;99.40
25652;DHT22;13508;50.734;4.232;2024-01-11T14:41:55;4.30;99.70
25652;DHT22;13508;50.734;4.232;2024-01-11T14:44:58;4.10;99.90
25652;DHT22;13508;50.734;4.232;2024-01-11T14:48:01;4.00;99.90
25652;DHT22;13508;50.734;4.232;2024-01-11T14:51:05;3.80;99.90
25652;DHT22;13508;50.734;4.232;2024-01-11T14:54:11;3.70;99.90
25652;DHT22;13508;50.734;4.232;2024-01-11T14:57:15;3.30;99.90
25652;DHT22;13508;50.734;4.232;2024-01-11T15:00:18;3.20;99.90
25652;DHT22;13508;50.734;4.232;2024-01-11T15:03:22;3.00;99.90
25652;DHT22;13508;50.734;4.232;2024-01-11T15:06:25;2.80;99.90
25652;DHT22;13508;50.734;4.232;2024-01-11T15:09:29;2.70;99.90
25652;DHT22;13508;50.734;4.232;2024-01-11T15:12:32;2.60;99.90
25652;DHT22;13508;50.734;4.232;2024-01-11T15:15:36;2.50;99.90
25652;DHT22;13508;50.734;4.232;2024-01-11T15:18:42;2.50;99.90
25652;DHT22;13508;50.734;4.232;2024-01-11T15:21:46;2.40;99.90
25652;DHT22;13508;50.734;4.232;2024-01-11T15:24:49;2.40;99.90
25652;DHT22;13508;50.734;4.232;2024-01-11T15:27:55;2.40;99.90
25652;DHT22;13508;50.734;4.232;2024-01-11T15:30:59;2.20;99.90
25652;DHT22;13508;50.734;4.232;2024-01-11T15:34:02;2.20;99.90
25652;DHT22;13508;50.734;4.232;2024-01-11T15:37:07;2.10;99.90
25652;DHT22;13508;50.734;4.232;2024-01-11T15:40:10;2.00;99.90
25652;DHT22;13508;50.734;4.232;2024-01-11T15:43:14;2.00;99.90
25652;DHT22;13508;50.734;4.232;2024-01-11T15:46:17;2.00;99.90
25652;DHT22;13508;50.734;4.232;2024-01-11T15:49:21;1.90;99.90
25652;DHT22;13508;50.734;4.232;2024-01-11T15:52:24;1.80;99.90
25652;DHT22;13508;50.734;4.232;2024-01-11T15:55:27;1.70;99.90
25652;DHT22;13508;50.734;4.232;2024-01-11T15:58:31;1.70;99.90
25652;DHT22;13508;50.734;4.232;2024-01-11T16:01:38;1.80;99.90
25652;DHT22;13508;50.734;4.232;2024-01-11T16:04:42;1.70;99.90
25652;DHT22;13508;50.734;4.232;2024-01-11T16:07:47;1.40;99.90
25652;DHT22;13508;50.734;4.232;2024-01-11T16:10:51;1.60;99.90
25652;DHT22;13508;50.734;4.232;2024-01-11T16:13:54;1.60;99.90
25652;DHT22;13508;50.734;4.232;2024-01-11T16:17:01;1.60;99.90
25652;DHT22;13508;50.734;4.232;2024-01-11T16:20:05;1.50;99.90
25652;DHT22;13508;50.734;4.232;2024-01-11T16:23:10;1.30;99.90
25652;DHT22;13508;50.734;4.232;2024-01-11T16:26:15;1.40;99.90
25652;DHT22;13508;50.734;4.232;2024-01-11T16:29:19;1.30;99.90
25652;DHT22;13508;50.734;4.232;2024-01-11T16:32:24;1.30;99.90
25652;DHT22;13508;50.734;4.232;2024-01-11T16:35:30;1.50;99.90
25652;DHT22;13508;50.734;4.232;2024-01-11T16:38:33;1.40;99.90
25652;DHT22;13508;50.734;4.232;2024-01-11T16:41:38;1.50;99.90
25652;DHT22;13508;50.734;4.232;2024-01-11T16:44:41;1.50;99.90
25652;DHT22;13508;50.734;4.232;2024-01-11T16:47:45;1.70;99.90
25652;DHT22;13508;50.734;4.232;2024-01-11T16:50:51;1.80;99.90
25652;DHT22;13508;50.734;4.232;2024-01-11T16:53:55;1.90;99.90
25652;DHT22;13508;50.734;4.232;2024-01-11T16:56:58;1.70;99.90
25652;DHT22;13508;50.734;4.232;2024-01-11T17:00:02;1.70;99.90
25652;DHT22;13508;50.734;4.232;2024-01-11T17:03:06;1.70;99.90
25652;DHT22;13508;50.734;4.232;2024-01-11T17:06:10;1.90;99.90
25652;DHT22;13508;50.734;4.232;2024-01-11T17:09:13;1.90;99.90
25652;DHT22;13508;50.734;4.232;2024-01-11T17:12:17;2.00;99.90
25652;DHT22;13508;50.734;4.232;2024-01-11T17:15:20;2.00;99.90
25652;DHT22;13508;50.734;4.232;2024-01-11T17:18:25;2.00;99.90
25652;DHT22;13508;50.734;4.232;2024-01-11T17:21:29;2.00;99.90
25652;DHT22;13508;50.734;4.232;2024-01-11T17:24:34;2.10;99.90
25652;DHT22;13508;50.734;4.232;2024-01-11T17:27:37;2.20;99.90
25652;DHT22;13508;50.734;4.232;2024-01-11T17:30:41;2.30;99.90
25652;DHT22;13508;50.734;4.232;2024-01-11T17:33:44;2.30;99.90
25652;DHT22;13508;50.734;4.232;2024-01-11T17:36:47;2.20;99.90
25652;DHT22;13508;50.734;4.232;2024-01-11T17:39:51;2.30;99.90
25652;DHT22;13508;50.734;4.232;2024-01-11T17:42:55;2.40;99.90
25652;DHT22;13508;50.734;4.232;2024-01-11T17:45:58;2.40;99.90
25652;DHT22;13508;50.734;4.232;2024-01-11T17:49:02;2.30;99.90
25652;DHT22;13508;50.734;4.232;2024-01-11T17:52:05;2.30;99.90
25652;DHT22;13508;50.734;4.232;2024-01-11T17:55:10;2.40;99.90
25652;DHT22;13508;50.734;4.232;2024-01-11T17:58:16;2.40;99.90
25652;DHT22;13508;50.734;4.232;2024-01-11T18:01:24;2.50;99.90
25652;DHT22;13508;50.734;4.232;2024-01-11T18:04:28;2.50;99.90
25652;DHT22;13508;50.734;4.232;2024-01-11T18:07:31;2.40;99.90
25652;DHT22;13508;50.734;4.232;2024-01-11T18:10:36;2.30;99.90
25652;DHT22;13508;50.734;4.232;2024-01-11T18:13:40;2.40;99.90
25652;DHT22;13508;50.734;4.232;2024-01-11T18:16:44;2.60;99.90
25652;DHT22;13508;50.734;4.232;2024-01-11T18:19:47;2.50;99.90
25652;DHT22;13508;50.734;4.232;2024-01-11T18:22:51;2.20;99.90
25652;DHT22;13508;50.734;4.232;2024-01-11T18:25:55;2.10;99.90
25652;DHT22;13508;50.734;4.232;2024-01-11T18:29:00;2.20;99.90
25652;DHT22;13508;50.734;4.232;2024-01-11T18:32:04;2.00;99.90
25652;DHT22;13508;50.734;4.232;2024-01-11T18:35:08;2.00;99.90
25652;DHT22;13508;50.734;4.232;2024-01-11T18:38:14;2.20;99.90
25652;DHT22;13508;50.734;4.232;2024-01-11T18:41:19;2.30;99.90
25652;DHT22;13508;50.734;4.232;2024-01-11T18:44:26;2.20;99.90
25652;DHT22;13508;50.734;4.232;2024-01-11T18:47:29;2.30;99.90
25652;DHT22;13508;50.734;4.232;2024-01-11T18:50:34;2.20;99.90
25652;DHT22;13508;50.734;4.232;2024-01-11T18:53:38;2.30;99.90
25652;DHT22;13508;50.734;4.232;2024-01-11T18:56:46;2.20;99.90
25652;DHT22;13508;50.734;4.232;2024-01-11T18:59:49;2.20;99.90
25652;DHT22;13508;50.734;4.232;2024-01-11T19:02:54;2.30;99.90
25652;DHT22;13508;50.734;4.232;2024-01-11T19:05:57;2.20;99.90
25652;DHT22;13508;50.734;4.232;2024-01-11T19:09:02;2.20;99.90
25652;DHT22;13508;50.734;4.232;2024-01-11T19:12:09;2.00;99.90
25652;DHT22;13508;50.734;4.232;2024-01-11T19:15:12;1.90;99.90
25652;DHT22;13508;50.734;4.232;2024-01-11T19:18:18;2.00;99.90
25652;DHT22;13508;50.734;4.232;2024-01-11T19:21:22;1.90;99.90
25652;DHT22;13508;50.734;4.232;2024-01-11T19:24:27;1.90;99.90
25652;DHT22;13508;50.734;4.232;2024-01-11T19:27:33;2.20;99.90
25652;DHT22;13508;50.734;4.232;2024-01-11T19:30:39;2.30;99.90
25652;DHT22;13508;50.734;4.232;2024-01-11T19:33:44;2.50;99.90
25652;DHT22;13508;50.734;4.232;2024-01-11T19:36:48;2.50;99.90